sensor_id;sensor_type;location;lat;lon;timestamp;pressure;altitude;pressure_sealevel;temperature;humidity
45894;BME280;31603;51.148;16.932;2022-07-30T00:02:01;100028.66;;;19.74;100.00
45894;BME280;31603;51.148;16.932;2022-07-30T00:04:29;100031.22;;;19.96;100.00
45894;BME280;31603;51.148;16.932;2022-07-30T00:06:58;100015.00;;;19.88;100.00
45894;BME280;31603;51.148;16.932;2022-07-30T00:09:24;100059.97;;;20.07;100.00
45894;BME280;31603;51.148;16.932;2022-07-30T00:11:56;100042.91;;;19.78;100.00
45894;BME280;31603;51.148;16.932;2022-07-30T00:14:32;99988.47;;;19.75;100.00
45894;BME280;31603;51.148;16.932;2022-07-30T00:16:59;99969.16;;;19.53;100.00
45894;BME280;31603;51.148;16.932;2022-07-30T00:19:34;100003.81;;;19.62;100.00
45894;BME280;31603;51.148;16.932;2022-07-30T00:22:01;100010.72;;;19.60;100.00
45894;BME280;31603;51.148;16.932;2022-07-30T00:24:49;99964.03;;;19.19;100.00
45894;BME280;31603;51.148;16.932;2022-07-30T00:27:20;100016.66;;;19.79;100.00
45894;BME280;31603;51.148;16.932;2022-07-30T00:29:52;99989.53;;;19.54;100.00
45894;BME280;31603;51.148;16.932;2022-07-30T00:32:18;99999.84;;;19.53;100.00
45894;BME280;31603;51.148;16.932;2022-07-30T00:34:46;100016.59;;;19.58;100.00
45894;BME280;31603;51.148;16.932;2022-07-30T00:37:13;99951.16;;;19.03;100.00
45894;BME280;31603;51.148;16.932;2022-07-30T00:39:45;99976.59;;;19.22;100.00
45894;BME280;31603;51.148;16.932;2022-07-30T00:42:12;99988.38;;;19.44;100.00
45894;BME280;31603;51.148;16.932;2022-07-30T00:44:41;100024.75;;;19.75;100.00
45894;BME280;31603;51.148;16.932;2022-07-30T00:47:08;99969.66;;;19.24;100.00
45894;BME280;31603;51.148;16.932;2022-07-30T00:49:43;99953.75;;;19.35;100.00
45894;BME280;31603;51.148;16.932;2022-07-30T00:52:13;100003.19;;;19.60;100.00
45894;BME280;31603;51.148;16.932;2022-07-30T00:54:43;99979.19;;;19.49;100.00
45894;BME280;31603;51.148;16.932;2022-07-30T00:57:09;100007.75;;;19.82;100.00
45894;BME280;31603;51.148;16.932;2022-07-30T00:59:36;99997.97;;;19.69;100.00
45894;BME280;31603;51.148;16.932;2022-07-30T01:02:02;100011.94;;;20.00;100.00
45894;BME280;31603;51.148;16.932;2022-07-30T01:04:29;99974.81;;;19.74;100.00
45894;BME280;31603;51.148;16.932;2022-07-30T01:06:58;99951.38;;;19.75;100.00
45894;BME280;31603;51.148;16.932;2022-07-30T01:09:42;99902.16;;;19.28;100.00
45894;BME280;31603;51.148;16.932;2022-07-30T01:12:09;99973.13;;;19.67;100.00
45894;BME280;31603;51.148;16.932;2022-07-30T01:14:38;99987.13;;;20.03;100.00
45894;BME280;31603;51.148;16.932;2022-07-30T01:17:09;100005.53;;;19.89;100.00
45894;BME280;31603;51.148;16.932;2022-07-30T01:19:38;99988.78;;;19.84;100.00
45894;BME280;31603;51.148;16.932;2022-07-30T01:22:22;100002.72;;;19.89;100.00
45894;BME280;31603;51.148;16.932;2022-07-30T01:24:57;99991.28;;;19.80;100.00
45894;BME280;31603;51.148;16.932;2022-07-30T01:27:40;99924.25;;;19.44;100.00
45894;BME280;31603;51.148;16.932;2022-07-30T01:30:09;99991.59;;;20.19;100.00
45894;BME280;31603;51.148;16.932;2022-07-30T01:32:39;99992.44;;;20.10;100.00
45894;BME280;31603;51.148;16.932;2022-07-30T01:35:08;99956.41;;;20.18;100.00
45894;BME280;31603;51.148;16.932;2022-07-30T01:37:36;99990.47;;;20.10;100.00
45894;BME280;31603;51.148;16.932;2022-07-30T01:40:06;99981.50;;;19.73;100.00
45894;BME280;31603;51.148;16.932;2022-07-30T01:43:06;99930.91;;;19.38;100.00
45894;BME280;31603;51.148;16.932;2022-07-30T01:45:33;99921.75;;;19.43;100.00
45894;BME280;31603;51.148;16.932;2022-07-30T01:48:22;99982.91;;;19.80;100.00
45894;BME280;31603;51.148;16.932;2022-07-30T01:50:53;99978.16;;;19.76;100.00
45894;BME280;31603;51.148;16.932;2022-07-30T01:53:25;99968.66;;;19.71;100.00
45894;BME280;31603;51.148;16.932;2022-07-30T01:55:53;99946.84;;;19.58;100.00
45894;BME280;31603;51.148;16.932;2022-07-30T01:58:22;99965.06;;;20.02;100.00
45894;BME280;31603;51.148;16.932;2022-07-30T02:00:52;99985.44;;;19.97;100.00
45894;BME280;31603;51.148;16.932;2022-07-30T02:03:21;99982.63;;;19.97;100.00
45894;BME280;31603;51.148;16.932;2022-07-30T02:06:01;99985.97;;;19.89;100.00
45894;BME280;31603;51.148;16.932;2022-07-30T02:08:34;99979.25;;;19.64;100.00
45894;BME280;31603;51.148;16.932;2022-07-30T02:11:06;99963.56;;;19.48;100.00
45894;BME280;31603;51.148;16.932;2022-07-30T02:13:40;99971.38;;;19.56;100.00
45894;BME280;31603;51.148;16.932;2022-07-30T02:16:19;99953.59;;;19.62;100.00
45894;BME280;31603;51.148;16.932;2022-07-30T02:18:51;99920.34;;;19.56;100.00
45894;BME280;31603;51.148;16.932;2022-07-30T02:21:23;99976.53;;;19.90;100.00
45894;BME280;31603;51.148;16.932;2022-07-30T02:23:52;99974.81;;;19.89;100.00
45894;BME280;31603;51.148;16.932;2022-07-30T02:26:26;99956.13;;;19.74;100.00
45894;BME280;31603;51.148;16.932;2022-07-30T02:29:06;99848.88;;;19.09;100.00
45894;BME280;31603;51.148;16.932;2022-07-30T02:31:35;99944.06;;;19.58;100.00
45894;BME280;31603;51.148;16.932;2022-07-30T02:34:04;99935.69;;;19.43;100.00
45894;BME280;31603;51.148;16.932;2022-07-30T02:36:32;99959.75;;;19.85;100.00
45894;BME280;31603;51.148;16.932;2022-07-30T02:39:01;99953.03;;;19.86;100.00
45894;BME280;31603;51.148;16.932;2022-07-30T02:41:30;99965.91;;;19.92;100.00
45894;BME280;31603;51.148;16.932;2022-07-30T02:43:58;99957.97;;;19.38;100.00
45894;BME280;31603;51.148;16.932;2022-07-30T02:46:25;99940.97;;;19.44;100.00
45894;BME280;31603;51.148;16.932;2022-07-30T02:48:55;99954.59;;;19.31;100.00
45894;BME280;31603;51.148;16.932;2022-07-30T02:51:25;99957.13;;;19.37;100.00
45894;BME280;31603;51.148;16.932;2022-07-30T02:53:53;99904.13;;;19.27;100.00
45894;BME280;31603;51.148;16.932;2022-07-30T02:56:24;99925.16;;;19.76;100.00
45894;BME280;31603;51.148;16.932;2022-07-30T02:58:55;99947.47;;;19.81;100.00
45894;BME280;31603;51.148;16.932;2022-07-30T03:01:26;99928.47;;;19.57;100.00
45894;BME280;31603;51.148;16.932;2022-07-30T03:03:55;99946.34;;;19.97;100.00
45894;BME280;31603;51.148;16.932;2022-07-30T03:06:28;99896.91;;;19.41;100.00
45894;BME280;31603;51.148;16.932;2022-07-30T03:09:08;99897.50;;;19.54;100.00
45894;BME280;31603;51.148;16.932;2022-07-30T03:11:37;99854.22;;;19.41;100.00
45894;BME280;31603;51.148;16.932;2022-07-30T03:14:05;99857.00;;;19.26;100.00
45894;BME280;31603;51.148;16.932;2022-07-30T03:16:33;99898.91;;;19.82;100.00
45894;BME280;31603;51.148;16.932;2022-07-30T03:22:10;99924.53;;;19.48;100.00
45894;BME280;31603;51.148;16.932;2022-07-30T03:24:38;99877.06;;;19.22;100.00
45894;BME280;31603;51.148;16.932;2022-07-30T03:27:09;99868.44;;;19.49;100.00
45894;BME280;31603;51.148;16.932;2022-07-30T03:29:40;99937.97;;;19.82;100.00
45894;BME280;31603;51.148;16.932;2022-07-30T03:32:23;99883.53;;;19.43;100.00
45894;BME280;31603;51.148;16.932;2022-07-30T03:34:57;99875.97;;;19.34;100.00
45894;BME280;31603;51.148;16.932;2022-07-30T03:37:27;99834.69;;;19.20;100.00
45894;BME280;31603;51.148;16.932;2022-07-30T03:39:56;99843.06;;;19.26;100.00
45894;BME280;31603;51.148;16.932;2022-07-30T03:42:24;99931.84;;;19.80;100.00
45894;BME280;31603;51.148;16.932;2022-07-30T03:45:08;99904.72;;;19.60;100.00
45894;BME280;31603;51.148;16.932;2022-07-30T03:47:38;99838.34;;;19.46;100.00
45894;BME280;31603;51.148;16.932;2022-07-30T03:50:07;99874.31;;;19.48;100.00
45894;BME280;31603;51.148;16.932;2022-07-30T03:52:40;99912.59;;;19.73;100.00
45894;BME280;31603;51.148;16.932;2022-07-30T03:55:08;99905.56;;;19.60;100.00
45894;BME280;31603;51.148;16.932;2022-07-30T03:57:36;99920.97;;;19.93;100.00
45894;BME280;31603;51.148;16.932;2022-07-30T04:00:13;99931.84;;;20.00;100.00
45894;BME280;31603;51.148;16.932;2022-07-30T04:02:43;99917.63;;;20.02;100.00
45894;BME280;31603;51.148;16.932;2022-07-30T04:05:11;99932.41;;;20.12;100.00
45894;BME280;31603;51.148;16.932;2022-07-30T04:07:40;99929.34;;;19.73;100.00
45894;BME280;31603;51.148;16.932;2022-07-30T04:10:07;99837.78;;;19.29;100.00
45894;BME280;31603;51.148;16.932;2022-07-30T04:12:42;99878.25;;;19.88;100.00
45894;BME280;31603;51.148;16.932;2022-07-30T04:15:09;99888.81;;;19.60;100.00
45894;BME280;31603;51.148;16.932;2022-07-30T04:17:40;99893.88;;;19.99;100.00
45894;BME280;31603;51.148;16.932;2022-07-30T04:20:11;99897.25;;;19.81;100.00
45894;BME280;31603;51.148;16.932;2022-07-30T04:23:13;99813.50;;;19.35;100.00
45894;BME280;31603;51.148;16.932;2022-07-30T04:25:50;99899.22;;;19.90;100.00
45894;BME280;31603;51.148;16.932;2022-07-30T04:28:25;99884.69;;;19.63;100.00
45894;BME280;31603;51.148;16.932;2022-07-30T04:31:03;99911.75;;;19.78;100.00
45894;BME280;31603;51.148;16.932;2022-07-30T04:33:45;99879.34;;;19.41;100.00
45894;BME280;31603;51.148;16.932;2022-07-30T04:36:18;99921.81;;;19.94;100.00
45894;BME280;31603;51.148;16.932;2022-07-30T04:38:59;99864.03;;;19.69;100.00
45894;BME280;31603;51.148;16.932;2022-07-30T04:41:30;99891.38;;;19.92;100.00
45894;BME280;31603;51.148;16.932;2022-07-30T04:44:09;99805.44;;;19.18;100.00
45894;BME280;31603;51.148;16.932;2022-07-30T04:46:35;99923.75;;;20.09;100.00
45894;BME280;31603;51.148;16.932;2022-07-30T04:49:09;99927.38;;;20.09;100.00
45894;BME280;31603;51.148;16.932;2022-07-30T04:51:37;99937.41;;;20.31;100.00
45894;BME280;31603;51.148;16.932;2022-07-30T04:54:08;99931.28;;;20.03;100.00
45894;BME280;31603;51.148;16.932;2022-07-30T04:56:38;99900.03;;;19.81;100.00
45894;BME280;31603;51.148;16.932;2022-07-30T04:59:08;99926.56;;;19.93;100.00
45894;BME280;31603;51.148;16.932;2022-07-30T05:01:40;99938.25;;;20.52;100.00
45894;BME280;31603;51.148;16.932;2022-07-30T05:04:07;99937.81;;;20.99;100.00
45894;BME280;31603;51.148;16.932;2022-07-30T05:06:34;99946.31;;;20.63;100.00
45894;BME280;31603;51.148;16.932;2022-07-30T05:09:09;99927.94;;;19.96;100.00
45894;BME280;31603;51.148;16.932;2022-07-30T05:11:36;99900.59;;;19.88;100.00
45894;BME280;31603;51.148;16.932;2022-07-30T05:14:03;99903.94;;;19.85;100.00
45894;BME280;31603;51.148;16.932;2022-07-30T05:16:31;99890.81;;;19.95;100.00
45894;BME280;31603;51.148;16.932;2022-07-30T05:19:11;99914.28;;;19.79;100.00
45894;BME280;31603;51.148;16.932;2022-07-30T05:21:41;99903.66;;;20.07;100.00
45894;BME280;31603;51.148;16.932;2022-07-30T05:24:42;99924.88;;;20.13;100.00
45894;BME280;31603;51.148;16.932;2022-07-30T05:27:16;99894.69;;;20.25;100.00
45894;BME280;31603;51.148;16.932;2022-07-30T05:29:54;99856.78;;;19.93;100.00
45894;BME280;31603;51.148;16.932;2022-07-30T05:32:24;99884.13;;;20.12;100.00
45894;BME280;31603;51.148;16.932;2022-07-30T05:34:51;99933.22;;;20.28;100.00
45894;BME280;31603;51.148;16.932;2022-07-30T05:37:28;99944.66;;;20.32;100.00
45894;BME280;31603;51.148;16.932;2022-07-30T05:40:07;99960.25;;;20.68;100.00
45894;BME280;31603;51.148;16.932;2022-07-30T05:42:46;99874.91;;;20.06;100.00
45894;BME280;31603;51.148;16.932;2022-07-30T05:45:13;99932.31;;;20.68;100.00
45894;BME280;31603;51.148;16.932;2022-07-30T05:47:39;99931.25;;;20.39;100.00
45894;BME280;31603;51.148;16.932;2022-07-30T05:50:06;99936.13;;;20.98;100.00
45894;BME280;31603;51.148;16.932;2022-07-30T05:52:33;99948.19;;;20.88;100.00
45894;BME280;31603;51.148;16.932;2022-07-30T05:54:59;99922.34;;;21.12;100.00
45894;BME280;31603;51.148;16.932;2022-07-30T05:57:36;99936.06;;;21.08;100.00
45894;BME280;31603;51.148;16.932;2022-07-30T06:00:09;99945.66;;;21.52;100.00
45894;BME280;31603;51.148;16.932;2022-07-30T06:02:46;99927.03;;;21.32;100.00
45894;BME280;31603;51.148;16.932;2022-07-30T06:05:13;99896.97;;;20.98;100.00
45894;BME280;31603;51.148;16.932;2022-07-30T06:07:39;99867.31;;;21.02;100.00
45894;BME280;31603;51.148;16.932;2022-07-30T06:10:07;99911.22;;;21.07;100.00
45894;BME280;31603;51.148;16.932;2022-07-30T06:12:43;99862.03;;;21.01;100.00
45894;BME280;31603;51.148;16.932;2022-07-30T06:15:11;99884.13;;;20.97;100.00
45894;BME280;31603;51.148;16.932;2022-07-30T06:17:42;99933.19;;;21.24;100.00
45894;BME280;31603;51.148;16.932;2022-07-30T06:20:09;99942.19;;;21.15;100.00
45894;BME280;31603;51.148;16.932;2022-07-30T06:22:43;99922.66;;;21.10;100.00
45894;BME280;31603;51.148;16.932;2022-07-30T06:25:10;99915.38;;;21.14;100.00
45894;BME280;31603;51.148;16.932;2022-07-30T06:27:41;99924.53;;;21.25;100.00
45894;BME280;31603;51.148;16.932;2022-07-30T06:30:09;99895.84;;;21.04;100.00
45894;BME280;31603;51.148;16.932;2022-07-30T06:32:38;99912.28;;;21.16;100.00
45894;BME280;31603;51.148;16.932;2022-07-30T06:35:11;99822.53;;;20.58;100.00
45894;BME280;31603;51.148;16.932;2022-07-30T06:37:38;99919.19;;;21.39;100.00
45894;BME280;31603;51.148;16.932;2022-07-30T06:40:12;99929.56;;;21.28;100.00
45894;BME280;31603;51.148;16.932;2022-07-30T06:42:41;99935.47;;;21.16;100.00
45894;BME280;31603;51.148;16.932;2022-07-30T06:45:09;99937.44;;;21.16;100.00
45894;BME280;31603;51.148;16.932;2022-07-30T06:47:36;99877.44;;;20.93;100.00
45894;BME280;31603;51.148;16.932;2022-07-30T06:50:03;99909.63;;;20.85;100.00
45894;BME280;31603;51.148;16.932;2022-07-30T06:52:36;99918.25;;;20.94;100.00
45894;BME280;31603;51.148;16.932;2022-07-30T06:55:04;99925.75;;;20.99;100.00
45894;BME280;31603;51.148;16.932;2022-07-30T06:57:42;99925.41;;;21.15;100.00
45894;BME280;31603;51.148;16.932;2022-07-30T07:00:29;99868.19;;;20.98;100.00
45894;BME280;31603;51.148;16.932;2022-07-30T07:03:13;99828.84;;;20.89;100.00
45894;BME280;31603;51.148;16.932;2022-07-30T07:05:45;99925.41;;;21.21;100.00
45894;BME280;31603;51.148;16.932;2022-07-30T07:08:15;99876.81;;;21.06;100.00
45894;BME280;31603;51.148;16.932;2022-07-30T07:10:52;99858.50;;;20.80;100.00
45894;BME280;31603;51.148;16.932;2022-07-30T07:13:29;99877.44;;;20.93;100.00
45894;BME280;31603;51.148;16.932;2022-07-30T07:15:56;99925.88;;;21.43;100.00
45894;BME280;31603;51.148;16.932;2022-07-30T07:18:44;99914.81;;;21.62;100.00
45894;BME280;31603;51.148;16.932;2022-07-30T07:21:12;99916.50;;;21.97;100.00
45894;BME280;31603;51.148;16.932;2022-07-30T07:23:40;99858.91;;;21.57;100.00
45894;BME280;31603;51.148;16.932;2022-07-30T07:26:07;99817.81;;;21.08;100.00
45894;BME280;31603;51.148;16.932;2022-07-30T07:28:50;99833.03;;;21.31;100.00
45894;BME280;31603;51.148;16.932;2022-07-30T07:31:18;99844.09;;;21.51;100.00
45894;BME280;31603;51.148;16.932;2022-07-30T07:33:45;99872.31;;;21.89;100.00
45894;BME280;31603;51.148;16.932;2022-07-30T07:36:16;99848.84;;;21.85;100.00
45894;BME280;31603;51.148;16.932;2022-07-30T07:38:45;99863.53;;;21.72;100.00
45894;BME280;31603;51.148;16.932;2022-07-30T07:41:30;99941.59;;;22.42;100.00
45894;BME280;31603;51.148;16.932;2022-07-30T07:44:27;99881.78;;;21.98;100.00
45894;BME280;31603;51.148;16.932;2022-07-30T07:46:56;99817.44;;;21.59;100.00
45894;BME280;31603;51.148;16.932;2022-07-30T07:49:26;99924.66;;;22.28;100.00
45894;BME280;31603;51.148;16.932;2022-07-30T07:51:53;99919.44;;;22.11;100.00
45894;BME280;31603;51.148;16.932;2022-07-30T07:54:32;99871.31;;;21.75;100.00
45894;BME280;31603;51.148;16.932;2022-07-30T07:57:01;99830.13;;;21.51;100.00
45894;BME280;31603;51.148;16.932;2022-07-30T07:59:37;99896.94;;;22.26;100.00
45894;BME280;31603;51.148;16.932;2022-07-30T08:02:04;99916.66;;;22.40;100.00
45894;BME280;31603;51.148;16.932;2022-07-30T08:04:30;99916.72;;;22.35;100.00
45894;BME280;31603;51.148;16.932;2022-07-30T08:07:10;99932.66;;;22.05;100.00
45894;BME280;31603;51.148;16.932;2022-07-30T08:09:37;99922.00;;;22.07;100.00
45894;BME280;31603;51.148;16.932;2022-07-30T08:12:06;99857.41;;;21.99;100.00
45894;BME280;31603;51.148;16.932;2022-07-30T08:14:33;99892.63;;;21.71;100.00
45894;BME280;31603;51.148;16.932;2022-07-30T08:17:01;99816.97;;;21.81;100.00
45894;BME280;31603;51.148;16.932;2022-07-30T08:19:36;99930.75;;;22.35;100.00
45894;BME280;31603;51.148;16.932;2022-07-30T08:22:03;99920.47;;;21.91;100.00
45894;BME280;31603;51.148;16.932;2022-07-30T08:24:50;99933.19;;;21.24;100.00
45894;BME280;31603;51.148;16.932;2022-07-30T08:27:17;99807.81;;;20.97;100.00
45894;BME280;31603;51.148;16.932;2022-07-30T08:29:49;99819.34;;;20.85;100.00
45894;BME280;31603;51.148;16.932;2022-07-30T08:32:26;99915.59;;;21.68;100.00
45894;BME280;31603;51.148;16.932;2022-07-30T08:35:14;99885.34;;;21.30;100.00
45894;BME280;31603;51.148;16.932;2022-07-30T08:37:41;99839.88;;;21.14;100.00
45894;BME280;31603;51.148;16.932;2022-07-30T08:40:12;99910.75;;;21.83;100.00
45894;BME280;31603;51.148;16.932;2022-07-30T08:42:44;99912.78;;;21.73;100.00
45894;BME280;31603;51.148;16.932;2022-07-30T08:45:29;99926.91;;;21.57;100.00
45894;BME280;31603;51.148;16.932;2022-07-30T08:48:26;99927.84;;;21.43;100.00
45894;BME280;31603;51.148;16.932;2022-07-30T08:50:54;99929.31;;;21.20;100.00
45894;BME280;31603;51.148;16.932;2022-07-30T08:53:23;99872.38;;;21.00;100.00
45894;BME280;31603;51.148;16.932;2022-07-30T08:55:51;99903.78;;;20.77;100.00
45894;BME280;31603;51.148;16.932;2022-07-30T08:58:30;99919.72;;;20.81;100.00
45894;BME280;31603;51.148;16.932;2022-07-30T09:01:23;99815.22;;;19.66;100.00
45894;BME280;31603;51.148;16.932;2022-07-30T09:04:03;99857.00;;;20.23;100.00
45894;BME280;31603;51.148;16.932;2022-07-30T09:06:33;99945.19;;;20.44;100.00
45894;BME280;31603;51.148;16.932;2022-07-30T09:09:07;99881.00;;;20.29;100.00
45894;BME280;31603;51.148;16.932;2022-07-30T09:11:34;99934.09;;;19.88;100.00
45894;BME280;31603;51.148;16.932;2022-07-30T09:14:07;99901.41;;;20.04;100.00
45894;BME280;31603;51.148;16.932;2022-07-30T09:16:34;99937.38;;;19.54;100.00
45894;BME280;31603;51.148;16.932;2022-07-30T09:19:21;99948.31;;;19.81;100.00
45894;BME280;31603;51.148;16.932;2022-07-30T09:21:54;99956.13;;;19.79;100.00
45894;BME280;31603;51.148;16.932;2022-07-30T09:24:21;99943.19;;;19.42;100.00
45894;BME280;31603;51.148;16.932;2022-07-30T09:26:52;99945.97;;;19.42;100.00
45894;BME280;31603;51.148;16.932;2022-07-30T09:29:21;99960.19;;;19.46;100.00
45894;BME280;31603;51.148;16.932;2022-07-30T09:31:55;99960.78;;;19.43;100.00
45894;BME280;31603;51.148;16.932;2022-07-30T09:34:27;99944.19;;;18.95;100.00
45894;BME280;31603;51.148;16.932;2022-07-30T09:36:58;99959.94;;;18.74;100.00
45894;BME280;31603;51.148;16.932;2022-07-30T09:39:29;99971.75;;;18.92;100.00
45894;BME280;31603;51.148;16.932;2022-07-30T09:41:56;99972.00;;;18.90;100.00
45894;BME280;31603;51.148;16.932;2022-07-30T09:44:24;99942.47;;;18.89;100.00
45894;BME280;31603;51.148;16.932;2022-07-30T09:46:57;99911.78;;;18.37;100.00
45894;BME280;31603;51.148;16.932;2022-07-30T09:49:27;99947.44;;;18.82;100.00
45894;BME280;31603;51.148;16.932;2022-07-30T09:51:56;99939.94;;;18.83;100.00
45894;BME280;31603;51.148;16.932;2022-07-30T09:54:23;99967.78;;;18.83;100.00
45894;BME280;31603;51.148;16.932;2022-07-30T09:57:09;99982.47;;;19.26;100.00
45894;BME280;31603;51.148;16.932;2022-07-30T09:59:35;99960.13;;;19.15;100.00
45894;BME280;31603;51.148;16.932;2022-07-30T10:02:02;99948.66;;;18.54;100.00
45894;BME280;31603;51.148;16.932;2022-07-30T10:04:31;99962.22;;;18.88;100.00
45894;BME280;31603;51.148;16.932;2022-07-30T10:06:59;99958.31;;;18.84;100.00
45894;BME280;31603;51.148;16.932;2022-07-30T10:09:27;99955.88;;;18.92;100.00
45894;BME280;31603;51.148;16.932;2022-07-30T10:11:55;99970.09;;;18.96;100.00
45894;BME280;31603;51.148;16.932;2022-07-30T10:14:24;99976.94;;;19.36;100.00
45894;BME280;31603;51.148;16.932;2022-07-30T10:16:51;99938.25;;;18.82;100.00
45894;BME280;31603;51.148;16.932;2022-07-30T10:19:18;99968.53;;;19.31;100.00
45894;BME280;31603;51.148;16.932;2022-07-30T10:21:49;99963.28;;;19.44;100.00
45894;BME280;31603;51.148;16.932;2022-07-30T10:24:18;99952.56;;;19.06;100.00
45894;BME280;31603;51.148;16.932;2022-07-30T10:26:45;99968.69;;;18.93;100.00
45894;BME280;31603;51.148;16.932;2022-07-30T10:29:14;99944.19;;;19.06;100.00
45894;BME280;31603;51.148;16.932;2022-07-30T10:31:41;99951.38;;;19.75;100.00
45894;BME280;31603;51.148;16.932;2022-07-30T10:34:08;99957.19;;;19.58;100.00
45894;BME280;31603;51.148;16.932;2022-07-30T10:36:35;99966.91;;;19.45;100.00
45894;BME280;31603;51.148;16.932;2022-07-30T10:39:04;99944.28;;;19.26;100.00
45894;BME280;31603;51.148;16.932;2022-07-30T10:41:47;99935.91;;;19.31;100.00
45894;BME280;31603;51.148;16.932;2022-07-30T10:44:30;99958.09;;;19.99;100.00
45894;BME280;31603;51.148;16.932;2022-07-30T10:47:05;99971.22;;;20.24;100.00
45894;BME280;31603;51.148;16.932;2022-07-30T10:49:32;99961.72;;;19.94;100.00
45894;BME280;31603;51.148;16.932;2022-07-30T10:52:00;99961.16;;;20.08;100.00
45894;BME280;31603;51.148;16.932;2022-07-30T10:54:51;99941.34;;;19.99;100.00
45894;BME280;31603;51.148;16.932;2022-07-30T10:57:19;99960.03;;;20.04;100.00
45894;BME280;31603;51.148;16.932;2022-07-30T11:00:09;99957.25;;;19.99;100.00
45894;BME280;31603;51.148;16.932;2022-07-30T11:02:36;99952.78;;;20.03;100.00
45894;BME280;31603;51.148;16.932;2022-07-30T11:05:22;99944.69;;;19.91;100.00
45894;BME280;31603;51.148;16.932;2022-07-30T11:07:49;99951.34;;;19.64;100.00
45894;BME280;31603;51.148;16.932;2022-07-30T11:10:37;99939.31;;;19.59;100.00
45894;BME280;31603;51.148;16.932;2022-07-30T11:13:04;99960.56;;;19.75;100.00
45894;BME280;31603;51.148;16.932;2022-07-30T11:15:50;99952.50;;;20.09;100.00
45894;BME280;31603;51.148;16.932;2022-07-30T11:18:17;99946.91;;;19.79;100.00
45894;BME280;31603;51.148;16.932;2022-07-30T11:21:16;99950.25;;;19.96;100.00
45894;BME280;31603;51.148;16.932;2022-07-30T11:23:43;99940.22;;;19.69;100.00
45894;BME280;31603;51.148;16.932;2022-07-30T11:26:47;99949.69;;;19.63;100.00
45894;BME280;31603;51.148;16.932;2022-07-30T11:29:34;99950.28;;;19.91;100.00
45894;BME280;31603;51.148;16.932;2022-07-30T11:32:25;99942.44;;;19.88;100.00
45894;BME280;31603;51.148;16.932;2022-07-30T11:35:10;99935.19;;;19.97;100.00
45894;BME280;31603;51.148;16.932;2022-07-30T11:37:58;99942.38;;;19.52;100.00
45894;BME280;31603;51.148;16.932;2022-07-30T11:40:27;99932.13;;;19.83;100.00
45894;BME280;31603;51.148;16.932;2022-07-30T11:43:17;99940.22;;;20.10;100.00
45894;BME280;31603;51.148;16.932;2022-07-30T11:45:45;99932.38;;;20.28;100.00
45894;BME280;31603;51.148;16.932;2022-07-30T11:48:13;99937.41;;;20.20;100.00
45894;BME280;31603;51.148;16.932;2022-07-30T11:50:41;99936.03;;;20.13;100.00
45894;BME280;31603;51.148;16.932;2022-07-30T11:53:13;99941.34;;;19.94;100.00
45894;BME280;31603;51.148;16.932;2022-07-30T11:55:40;99938.28;;;20.16;100.00
45894;BME280;31603;51.148;16.932;2022-07-30T11:58:08;99918.16;;;20.19;100.00
45894;BME280;31603;51.148;16.932;2022-07-30T12:00:38;99937.16;;;20.12;100.00
45894;BME280;31603;51.148;16.932;2022-07-30T12:03:09;99927.34;;;20.25;100.00
45894;BME280;31603;51.148;16.932;2022-07-30T12:05:37;99931.22;;;20.64;100.00
45894;BME280;31603;51.148;16.932;2022-07-30T12:08:05;99929.00;;;20.46;100.00
45894;BME280;31603;51.148;16.932;2022-07-30T12:10:34;99927.88;;;20.57;100.00
45894;BME280;31603;51.148;16.932;2022-07-30T12:13:08;99925.41;;;20.15;100.00
45894;BME280;31603;51.148;16.932;2022-07-30T12:15:38;99826.66;;;19.70;100.00
45894;BME280;31603;51.148;16.932;2022-07-30T12:18:05;99928.16;;;20.40;100.00
45894;BME280;31603;51.148;16.932;2022-07-30T12:20:32;99931.78;;;20.66;100.00
45894;BME280;31603;51.148;16.932;2022-07-30T12:22:58;99876.56;;;20.07;100.00
45894;BME280;31603;51.148;16.932;2022-07-30T12:25:29;99863.75;;;19.96;100.00
45894;BME280;31603;51.148;16.932;2022-07-30T12:28:25;99827.97;;;20.13;100.00
45894;BME280;31603;51.148;16.932;2022-07-30T12:31:03;99883.25;;;19.60;100.00
45894;BME280;31603;51.148;16.932;2022-07-30T12:33:31;99879.38;;;19.92;100.00
45894;BME280;31603;51.148;16.932;2022-07-30T12:35:59;99823.00;;;19.54;100.00
45894;BME280;31603;51.148;16.932;2022-07-30T12:38:48;99871.56;;;19.84;100.00
45894;BME280;31603;51.148;16.932;2022-07-30T12:41:41;99872.13;;;19.86;100.00
45894;BME280;31603;51.148;16.932;2022-07-30T12:44:10;99930.16;;;19.99;100.00
45894;BME280;31603;51.148;16.932;2022-07-30T12:46:56;99912.56;;;19.78;100.00
45894;BME280;31603;51.148;16.932;2022-07-30T12:49:27;99921.25;;;19.77;100.00
45894;BME280;31603;51.148;16.932;2022-07-30T12:51:54;99900.31;;;19.84;100.00
45894;BME280;31603;51.148;16.932;2022-07-30T12:54:28;99894.69;;;19.54;100.00
45894;BME280;31603;51.148;16.932;2022-07-30T12:56:56;99916.22;;;19.99;100.00
45894;BME280;31603;51.148;16.932;2022-07-30T12:59:26;99931.03;;;19.94;100.00
45894;BME280;31603;51.148;16.932;2022-07-30T13:01:55;99913.69;;;19.67;100.00
45894;BME280;31603;51.148;16.932;2022-07-30T13:04:24;99907.50;;;19.60;100.00
45894;BME280;31603;51.148;16.932;2022-07-30T13:07:02;99923.97;;;19.56;100.00
45894;BME280;31603;51.148;16.932;2022-07-30T13:09:29;99901.34;;;19.42;100.00
45894;BME280;31603;51.148;16.932;2022-07-30T13:14:23;99934.03;;;19.57;100.00